Blacktown, Australia
Current Conditions -  °F | °C
As of 5:00 AM on Wednesday 22 Oct 2014 (Local Time) from YSRI Reporting Station
Overcast Overcast  
Wind Chill: 57°   Ceiling: 4400
Heat Index: 57°   Visibility: 6mi
Dew Point: 50°   Wind: 0mph
Humidity: 77%   Direction: NA
Pressure: 30.33"   Gusts: NA
Location:  33.77°S, 150.91°E
Report Text: YSRI 211800Z AUTO 00000KT 9999 // OVC044 14/10 Q1027
Loading
Personal Weather Stations






























Interactive Weather Map
Tropical Storm Tracking
New forecast layout! Learn more

10-Day Weather Forecast

Advertisements
Track Severe Weather on mobile